Time;durP1;ratioP1;P1;durP2;ratioP2;P2;SDS_P1;SDS_P2;PMS_P1;PMS_P2;Temp;Humidity;BMP_temperature;BMP_pressure;BME280_temperature;BME280_humidity;BME280_pressure;Samples;Min_cycle;Max_cycle;Signal;HPM_P1;HPM_P2
2022/07/04 00:00:28;;;;;;;6.95;5.90;;;13.20;99.90;;;;;;5051034;28;20660;-69
2022/07/04 00:02:55;;;;;;;5.20;4.63;;;13.20;99.90;;;;;;5051807;28;20655;-69
2022/07/04 00:05:21;;;;;;;8.23;4.97;;;13.10;99.90;;;;;;5051656;28;20345;-69
2022/07/04 00:07:49;;;;;;;7.53;5.30;;;13.10;99.90;;;;;;5050562;28;20036;-69
2022/07/04 00:10:17;;;;;;;5.93;4.80;;;13.10;99.90;;;;;;5046655;28;20095;-69
2022/07/04 00:12:43;;;;;;;5.68;4.95;;;13.10;99.90;;;;;;5051392;28;20045;-69
2022/07/04 00:15:10;;;;;;;5.35;4.85;;;13.00;99.90;;;;;;5050179;28;20492;-69
2022/07/04 00:17:35;;;;;;;5.65;4.82;;;13.00;99.90;;;;;;5048828;28;20067;-69
2022/07/04 00:20:02;;;;;;;6.65;4.45;;;12.90;99.90;;;;;;5052954;28;20076;-69
2022/07/04 00:22:28;;;;;;;4.72;4.22;;;12.90;99.90;;;;;;5049754;28;20053;-69
2022/07/04 00:24:54;;;;;;;6.22;4.72;;;12.90;99.90;;;;;;5084636;28;20046;-69
2022/07/04 00:27:19;;;;;;;5.05;4.03;;;12.80;99.90;;;;;;5044812;28;20349;-69
2022/07/04 00:29:45;;;;;;;4.78;4.13;;;12.80;99.90;;;;;;5050516;28;20041;-69
2022/07/04 00:32:11;;;;;;;5.78;4.65;;;12.80;99.90;;;;;;5048876;28;20079;-69
2022/07/04 00:34:36;;;;;;;6.30;4.82;;;12.70;99.90;;;;;;5082489;28;20052;-69
2022/07/04 00:37:02;;;;;;;7.22;5.03;;;12.80;99.90;;;;;;5051097;28;20045;-69
2022/07/04 00:39:29;;;;;;;7.25;4.85;;;12.70;99.90;;;;;;5075805;28;20128;-69
2022/07/04 00:41:54;;;;;;;7.10;5.05;;;12.70;99.90;;;;;;5048661;28;20040;-69
2022/07/04 00:44:20;;;;;;;6.97;5.30;;;12.70;99.90;;;;;;5082985;28;20053;-69
2022/07/04 00:46:47;;;;;;;7.95;5.15;;;12.70;99.90;;;;;;5048315;28;20098;-69
2022/07/04 00:49:14;;;;;;;5.25;4.85;;;12.60;99.90;;;;;;5049670;28;20420;-69
2022/07/04 00:51:42;;;;;;;7.07;4.97;;;12.60;99.90;;;;;;5047242;28;20501;-69
2022/07/04 00:54:10;;;;;;;7.45;6.05;;;12.50;99.90;;;;;;5026140;28;20045;-69
2022/07/04 00:56:37;;;;;;;7.38;4.75;;;12.50;99.90;;;;;;5024867;28;20045;-69
2022/07/04 00:59:04;;;;;;;7.88;5.03;;;12.50;99.90;;;;;;5047876;28;20098;-69
2022/07/04 01:01:29;;;;;;;5.97;4.80;;;12.50;99.90;;;;;;5053410;28;20068;-69
2022/07/04 01:03:56;;;;;;;5.47;4.57;;;12.50;99.90;;;;;;5051543;28;20108;-69
2022/07/04 01:06:22;;;;;;;4.93;4.43;;;12.50;99.90;;;;;;5049344;28;20400;-69
2022/07/04 01:08:48;;;;;;;5.57;4.55;;;12.40;99.90;;;;;;5049475;28;20044;-69
2022/07/04 01:11:14;;;;;;;5.82;4.93;;;12.40;99.90;;;;;;5047479;28;20048;-69
2022/07/04 01:13:41;;;;;;;6.47;5.35;;;12.40;99.90;;;;;;5048651;28;20415;-69
2022/07/04 01:16:08;;;;;;;6.32;5.53;;;12.40;99.90;;;;;;5051713;28;20048;-69
2022/07/04 01:18:34;;;;;;;5.05;4.57;;;12.40;99.90;;;;;;5047928;28;20041;-69
2022/07/04 01:21:00;;;;;;;6.63;4.70;;;12.40;99.90;;;;;;5049446;28;20408;-69
2022/07/04 01:23:25;;;;;;;7.18;5.50;;;12.30;99.90;;;;;;5068241;28;20057;-69
2022/07/04 01:25:52;;;;;;;5.93;5.30;;;12.30;99.90;;;;;;5053314;28;20048;-69
2022/07/04 01:28:24;;;;;;;7.88;6.45;;;12.30;99.90;;;;;;5052697;28;20162;-69
2022/07/04 01:30:50;;;;;;;8.40;6.20;;;12.30;99.90;;;;;;5053893;28;20393;-69
2022/07/04 01:33:19;;;;;;;7.32;5.05;;;12.30;99.90;;;;;;5053341;28;20485;-69
2022/07/04 01:35:46;;;;;;;7.30;5.63;;;12.20;99.90;;;;;;5055820;28;20040;-69
2022/07/04 01:38:12;;;;;;;6.68;6.00;;;12.20;99.90;;;;;;5051499;28;20043;-69
2022/07/04 01:40:37;;;;;;;6.10;5.50;;;12.20;99.90;;;;;;5052065;28;20036;-70
2022/07/04 01:43:03;;;;;;;7.72;5.40;;;12.20;99.90;;;;;;5053783;28;20136;-70
2022/07/04 01:45:29;;;;;;;6.43;5.45;;;12.10;99.90;;;;;;5052194;28;20045;-69
2022/07/04 01:47:56;;;;;;;6.43;5.20;;;12.10;99.90;;;;;;5053201;28;20388;-69
2022/07/04 01:50:22;;;;;;;6.85;5.40;;;12.10;99.90;;;;;;5053200;28;20073;-69
2022/07/04 01:52:48;;;;;;;5.47;4.90;;;12.10;99.90;;;;;;5052944;28;20460;-69
2022/07/04 01:55:13;;;;;;;8.52;4.85;;;12.10;99.90;;;;;;5052718;28;20068;-69
2022/07/04 01:57:39;;;;;;;5.43;4.93;;;12.00;99.90;;;;;;5050692;28;20093;-69
2022/07/04 02:02:52;;;;;;;6.85;6.07;;;12.00;99.90;;;;;;5052721;28;20372;-69
2022/07/04 02:05:17;;;;;;;6.82;5.88;;;12.00;99.90;;;;;;5051791;28;20037;-69
2022/07/04 02:07:43;;;;;;;6.00;5.40;;;12.00;99.90;;;;;;5055179;28;20063;-69
2022/07/04 02:10:10;;;;;;;5.90;5.32;;;12.00;99.90;;;;;;5051523;28;20491;-69
2022/07/04 02:15:20;;;;;;;;;;;11.90;99.90;;;;;;5050766;28;20048;-69
2022/07/04 02:17:47;;;;;;;7.63;5.63;;;11.90;99.90;;;;;;5051595;28;20284;-69
2022/07/04 02:20:13;;;;;;;6.60;5.85;;;11.80;99.90;;;;;;5081724;28;20052;-69
2022/07/04 02:22:39;;;;;;;6.55;5.70;;;11.80;99.90;;;;;;5052083;28;20079;-69
2022/07/04 02:25:05;;;;;;;6.72;5.70;;;11.80;99.90;;;;;;5051181;28;20040;-69
2022/07/04 02:27:32;;;;;;;8.98;5.38;;;11.80;99.90;;;;;;5052832;28;20373;-69
2022/07/04 02:29:58;;;;;;;7.45;5.43;;;11.80;99.90;;;;;;5053418;28;20048;-69
2022/07/04 02:32:23;;;;;;;7.65;6.63;;;11.80;99.90;;;;;;5050137;28;20048;-69
2022/07/04 02:34:49;;;;;;;6.30;5.38;;;11.80;99.90;;;;;;5053168;28;20045;-69
2022/07/04 02:37:15;;;;;;;7.78;6.97;;;11.80;99.90;;;;;;5050597;28;20037;-69
2022/07/04 02:39:41;;;;;;;8.48;6.90;;;11.80;99.90;;;;;;5070014;28;20052;-69
2022/07/04 02:42:07;;;;;;;8.15;6.78;;;11.80;99.90;;;;;;5048209;28;20045;-69
2022/07/04 02:44:32;;;;;;;7.60;6.15;;;11.80;99.90;;;;;;5050426;28;20057;-69
2022/07/04 02:46:58;;;;;;;6.97;6.28;;;11.70;99.90;;;;;;5051312;28;20056;-69
2022/07/04 02:49:24;;;;;;;7.53;6.53;;;11.70;99.90;;;;;;5033250;28;20120;-69
2022/07/04 02:51:49;;;;;;;7.38;6.10;;;11.70;99.90;;;;;;5051681;28;20086;-69
2022/07/04 02:54:15;;;;;;;9.25;6.32;;;11.60;99.90;;;;;;5053313;28;20421;-69
2022/07/04 02:56:41;;;;;;;7.47;6.68;;;11.70;99.90;;;;;;5050263;28;20523;-69
2022/07/04 02:59:07;;;;;;;7.30;6.70;;;11.70;99.90;;;;;;5082522;28;20406;-69
2022/07/04 03:01:33;;;;;;;8.00;7.03;;;11.60;99.90;;;;;;5051210;28;20060;-69
2022/07/04 03:03:59;;;;;;;7.70;6.95;;;11.60;99.90;;;;;;5084522;28;20743;-69
2022/07/04 03:06:25;;;;;;;9.20;7.43;;;11.70;99.90;;;;;;5051648;28;20041;-69
2022/07/04 03:08:52;;;;;;;7.57;6.78;;;11.70;99.90;;;;;;5051907;28;20381;-69
2022/07/04 03:11:19;;;;;;;8.50;7.03;;;11.60;99.90;;;;;;5048725;28;20175;-69
2022/07/04 03:13:44;;;;;;;7.00;6.45;;;11.70;99.90;;;;;;5049303;28;20041;-69
2022/07/04 03:16:10;;;;;;;8.80;7.22;;;11.60;99.90;;;;;;5034785;28;20056;-69
2022/07/04 03:18:36;;;;;;;8.32;7.53;;;11.60;99.90;;;;;;5084428;28;20053;-69
2022/07/04 03:21:04;;;;;;;8.13;7.32;;;11.70;99.90;;;;;;5049274;28;20071;-69
2022/07/04 03:23:31;;;;;;;9.52;8.23;;;11.70;99.90;;;;;;5054482;28;20323;-69
2022/07/04 03:25:56;;;;;;;11.07;9.57;;;11.70;99.90;;;;;;5052342;28;20040;-69
2022/07/04 03:28:22;;;;;;;9.25;8.02;;;11.70;99.90;;;;;;5049512;28;20047;-69
2022/07/04 03:30:48;;;;;;;10.32;8.48;;;11.70;99.90;;;;;;5050103;28;20041;-69
2022/07/04 03:33:13;;;;;;;9.88;8.88;;;11.70;99.90;;;;;;5052699;28;20047;-69
2022/07/04 03:35:39;;;;;;;10.98;9.95;;;11.70;99.90;;;;;;5052055;28;20060;-69
2022/07/04 03:38:05;;;;;;;10.15;8.68;;;11.70;99.90;;;;;;5064344;28;20041;-69
2022/07/04 03:40:32;;;;;;;8.90;8.05;;;11.70;99.90;;;;;;5050496;28;20049;-69
2022/07/04 03:42:58;;;;;;;11.52;8.75;;;11.80;99.90;;;;;;5051183;28;20040;-69
2022/07/04 03:45:24;;;;;;;10.40;8.52;;;11.80;99.90;;;;;;5049629;28;20064;-69
2022/07/04 03:47:50;;;;;;;9.73;7.72;;;11.80;99.90;;;;;;5051317;28;20037;-69
2022/07/04 03:50:17;;;;;;;9.80;8.85;;;11.80;99.90;;;;;;5066017;28;20076;-69
2022/07/04 03:52:43;;;;;;;9.55;8.70;;;11.80;99.90;;;;;;5051555;28;20044;-69
2022/07/04 03:55:09;;;;;;;10.80;9.70;;;11.80;99.90;;;;;;5082483;28;20040;-69
2022/07/04 03:57:35;;;;;;;11.63;8.73;;;11.90;99.90;;;;;;5048348;28;20049;-69
2022/07/04 04:00:01;;;;;;;10.68;9.55;;;11.90;99.90;;;;;;5051591;28;20040;-69
2022/07/04 04:02:26;;;;;;;12.07;9.13;;;11.90;99.90;;;;;;5066852;28;20053;-69
2022/07/04 04:07:36;;;;;;;9.33;8.43;;;12.00;99.90;;;;;;5049081;28;20122;-69
2022/07/04 04:10:02;;;;;;;10.77;9.73;;;12.00;99.90;;;;;;5032447;28;20072;-69
2022/07/04 04:12:28;;;;;;;11.50;10.23;;;12.00;99.90;;;;;;5064944;28;20543;-69
2022/07/04 04:14:53;;;;;;;11.85;10.75;;;12.10;99.90;;;;;;5051155;28;20039;-69
2022/07/04 04:17:19;;;;;;;11.68;10.48;;;12.20;99.90;;;;;;5052281;28;20152;-69
2022/07/04 04:19:45;;;;;;;12.45;11.25;;;12.20;99.90;;;;;;5082714;28;20041;-69
2022/07/04 04:22:11;;;;;;;17.10;11.95;;;12.30;99.90;;;;;;5050920;28;20127;-70
2022/07/04 04:24:36;;;;;;;14.70;13.13;;;12.40;99.90;;;;;;5079573;28;20041;-69
2022/07/04 04:27:03;;;;;;;14.95;13.32;;;12.50;99.90;;;;;;5045054;28;20048;-69
2022/07/04 04:29:28;;;;;;;16.00;14.00;;;12.60;99.90;;;;;;5048355;28;20072;-69
2022/07/04 04:31:54;;;;;;;15.57;14.00;;;12.70;99.90;;;;;;5083626;28;20068;-69
2022/07/04 04:34:19;;;;;;;16.88;14.68;;;12.80;99.90;;;;;;5054514;28;20065;-69
2022/07/04 04:36:45;;;;;;;19.23;16.17;;;12.90;99.90;;;;;;5082889;28;20098;-69
2022/07/04 04:39:11;;;;;;;19.63;14.63;;;13.00;99.90;;;;;;5034087;28;20526;-70
2022/07/04 04:41:36;;;;;;;15.45;13.95;;;13.10;99.90;;;;;;5047918;28;20404;-70
2022/07/04 04:44:02;;;;;;;15.07;13.52;;;13.20;99.90;;;;;;5081177;28;20493;-70
2022/07/04 04:46:28;;;;;;;16.17;12.60;;;13.30;99.90;;;;;;5049868;28;20500;-70
2022/07/04 04:48:54;;;;;;;15.25;12.73;;;13.50;99.90;;;;;;5046369;28;20175;-70
2022/07/04 04:51:19;;;;;;;18.17;12.43;;;13.60;99.90;;;;;;5049511;28;20049;-70
2022/07/04 04:53:45;;;;;;;15.60;11.82;;;13.70;99.90;;;;;;5081703;28;20489;-70
2022/07/04 04:56:11;;;;;;;16.85;11.15;;;13.80;99.90;;;;;;5081041;28;20733;-70
2022/07/04 04:58:36;;;;;;;12.18;10.68;;;13.90;99.90;;;;;;5081666;28;20047;-70
2022/07/04 05:01:02;;;;;;;11.32;10.23;;;14.10;99.90;;;;;;5081985;28;20051;-70
2022/07/04 05:03:29;;;;;;;11.05;9.95;;;14.20;99.90;;;;;;5049240;28;20488;-70
2022/07/04 05:05:55;;;;;;;10.40;8.73;;;14.40;99.90;;;;;;5052449;28;20040;-70
2022/07/04 05:08:21;;;;;;;12.60;8.68;;;14.60;99.90;;;;;;5048700;28;20136;-70
2022/07/04 05:10:46;;;;;;;9.60;7.88;;;14.70;99.90;;;;;;5048550;28;20074;-71
2022/07/04 05:13:12;;;;;;;10.52;8.57;;;14.90;99.90;;;;;;5032575;28;20045;-70
2022/07/04 05:15:38;;;;;;;11.65;8.43;;;15.10;99.90;;;;;;5045940;28;20053;-70
2022/07/04 05:18:03;;;;;;;12.27;9.00;;;15.30;99.90;;;;;;5046990;28;20472;-70
2022/07/04 05:20:29;;;;;;;11.32;7.35;;;15.80;99.90;;;;;;5047210;28;20108;-70
2022/07/04 05:22:54;;;;;;;12.32;7.60;;;16.10;99.90;;;;;;5048851;28;20114;-70
2022/07/04 05:25:20;;;;;;;10.27;7.47;;;16.10;99.90;;;;;;5048253;28;20068;-70
2022/07/04 05:27:46;;;;;;;10.57;6.72;;;16.10;99.90;;;;;;5081148;28;20110;-70
2022/07/04 05:30:12;;;;;;;10.27;6.07;;;16.00;99.90;;;;;;5047572;28;20152;-70
2022/07/04 05:32:40;;;;;;;7.63;5.95;;;15.90;99.90;;;;;;5044597;28;20588;-69
2022/07/04 05:35:07;;;;;;;12.45;6.57;;;15.90;99.90;;;;;;5048506;28;20374;-69
2022/07/04 05:37:35;;;;;;;12.45;8.20;;;15.90;99.90;;;;;;5048634;28;20064;-69
2022/07/04 05:40:03;;;;;;;7.70;6.50;;;15.90;99.90;;;;;;5049001;28;20512;-69
2022/07/04 05:42:29;;;;;;;10.80;6.30;;;16.00;99.90;;;;;;5049080;28;20041;-70
2022/07/04 05:44:54;;;;;;;8.50;6.40;;;16.00;99.90;;;;;;5048151;28;20049;-69
2022/07/04 05:47:23;;;;;;;11.15;5.70;;;16.10;99.90;;;;;;5078658;28;20045;-69
2022/07/04 05:49:49;;;;;;;10.77;6.55;;;16.20;99.90;;;;;;5049973;28;20405;-69
2022/07/04 05:52:15;;;;;;;11.52;5.95;;;16.30;99.90;;;;;;5049011;28;20481;-69
2022/07/04 05:54:41;;;;;;;8.77;5.47;;;16.40;99.90;;;;;;5049202;28;20106;-69
2022/07/04 05:57:07;;;;;;;8.05;5.07;;;16.50;99.90;;;;;;5046433;28;20057;-69
2022/07/04 05:59:32;;;;;;;10.98;5.18;;;16.60;99.90;;;;;;5048923;28;20041;-69
2022/07/04 06:01:58;;;;;;;9.55;5.20;;;16.60;99.90;;;;;;5046576;28;20048;-69
2022/07/04 06:04:24;;;;;;;8.02;5.40;;;16.70;99.90;;;;;;5050376;28;20042;-69
2022/07/04 06:06:50;;;;;;;7.57;4.75;;;16.80;99.90;;;;;;5045609;28;20174;-69
2022/07/04 06:09:16;;;;;;;6.10;4.80;;;16.90;99.90;;;;;;5054949;28;20127;-69
2022/07/04 06:11:42;;;;;;;8.10;4.57;;;17.00;99.90;;;;;;5052116;28;20651;-69
2022/07/04 06:14:07;;;;;;;9.43;4.60;;;17.10;99.90;;;;;;5054200;28;20120;-69
2022/07/04 06:16:33;;;;;;;7.63;4.97;;;17.20;99.90;;;;;;5050716;28;20054;-69
2022/07/04 06:18:59;;;;;;;8.70;4.65;;;17.30;99.90;;;;;;5049922;28;20063;-69
2022/07/04 06:21:24;;;;;;;10.90;4.70;;;17.40;99.90;;;;;;5050235;28;20587;-69
2022/07/04 06:23:50;;;;;;;7.40;4.05;;;17.60;99.90;;;;;;5049203;28;20231;-69
2022/07/04 06:26:16;;;;;;;9.57;3.47;;;17.70;99.90;;;;;;5033427;28;20056;-69
2022/07/04 06:28:41;;;;;;;7.03;3.85;;;17.80;99.90;;;;;;5047375;28;20119;-69
2022/07/04 06:31:07;;;;;;;12.15;4.03;;;17.90;99.90;;;;;;5050422;28;20048;-69
2022/07/04 06:35:44;;;;;;;7.80;3.88;;;18.00;99.90;;;;;;5050677;28;20037;-69
2022/07/04 06:36:18;;;;;;;9.70;3.63;;;18.10;99.90;;;;;;5048561;28;20598;-69
2022/07/04 06:38:44;;;;;;;7.38;4.10;;;18.20;99.90;;;;;;5050602;28;20143;-69
2022/07/04 06:41:11;;;;;;;6.70;3.47;;;18.30;99.90;;;;;;5053484;28;20052;-69
2022/07/04 06:43:36;;;;;;;7.88;3.50;;;18.40;99.90;;;;;;5051895;28;20040;-69
2022/07/04 06:46:02;;;;;;;10.77;4.07;;;18.50;99.90;;;;;;5052326;28;20045;-69
2022/07/04 06:48:29;;;;;;;7.07;3.60;;;18.60;99.90;;;;;;5053337;28;20128;-69
2022/07/04 06:50:55;;;;;;;9.80;3.60;;;18.70;99.90;;;;;;5053880;28;20041;-69
2022/07/04 06:53:20;;;;;;;7.18;3.72;;;18.80;99.90;;;;;;5052169;28;20568;-69
2022/07/04 06:55:46;;;;;;;8.50;3.28;;;18.90;99.90;;;;;;5050724;28;20025;-70
2022/07/04 06:58:14;;;;;;;9.07;3.90;;;19.00;99.90;;;;;;5051398;28;20047;-70
2022/07/04 07:00:41;;;;;;;8.93;3.33;;;19.10;99.90;;;;;;5051517;28;20055;-70
2022/07/04 07:03:07;;;;;;;9.68;3.90;;;19.20;99.90;;;;;;5051755;28;20044;-70
2022/07/04 07:05:36;;;;;;;7.88;4.30;;;19.30;99.90;;;;;;5050731;28;20051;-70
2022/07/04 07:08:03;;;;;;;7.75;3.33;;;19.40;99.90;;;;;;5049833;28;20048;-70
2022/07/04 07:10:29;;;;;;;7.80;4.13;;;19.60;99.90;;;;;;5062873;28;20053;-70
2022/07/04 07:12:54;;;;;;;7.28;3.10;;;19.70;99.90;;;;;;5048306;28;20523;-70
2022/07/04 07:15:20;;;;;;;8.05;3.10;;;19.90;99.90;;;;;;5047988;28;20052;-70
2022/07/04 07:17:46;;;;;;;6.35;3.00;;;20.00;99.90;;;;;;5050469;28;20043;-70
2022/07/04 07:20:13;;;;;;;8.13;3.60;;;20.20;99.90;;;;;;5048683;28;20408;-70
2022/07/04 07:22:40;;;;;;;8.38;3.30;;;20.30;99.90;;;;;;5082285;28;20071;-70
2022/07/04 07:25:06;;;;;;;8.73;3.20;;;20.30;99.90;;;;;;5028489;28;20097;-70
2022/07/04 07:27:32;;;;;;;7.57;3.13;;;20.30;99.90;;;;;;5048204;28;20095;-70
2022/07/04 07:29:58;;;;;;;7.07;2.97;;;20.30;99.90;;;;;;5048866;28;20488;-71
2022/07/04 07:32:23;;;;;;;8.45;3.25;;;20.20;99.90;;;;;;5053530;28;20132;-71
2022/07/04 07:34:49;;;;;;;11.50;3.70;;;20.20;99.90;;;;;;5049111;28;20056;-71
2022/07/04 07:37:17;;;;;;;8.55;3.35;;;20.30;99.90;;;;;;5045361;28;20045;-71
2022/07/04 07:39:43;;;;;;;9.23;3.50;;;20.30;99.90;;;;;;5082705;28;20059;-72
2022/07/04 07:42:09;;;;;;;11.70;3.22;;;20.40;99.90;;;;;;5048320;28;20491;-72
2022/07/04 07:44:34;;;;;;;6.88;3.10;;;20.60;99.90;;;;;;5049452;28;20036;-72
2022/07/04 07:47:00;;;;;;;6.70;2.80;;;20.70;99.90;;;;;;5049179;28;20048;-72
2022/07/04 07:49:26;;;;;;;7.25;2.45;;;20.90;99.90;;;;;;5083071;28;20448;-72
2022/07/04 07:51:52;;;;;;;7.68;2.63;;;21.20;99.90;;;;;;5048266;28;20112;-72
2022/07/04 07:54:18;;;;;;;6.72;2.30;;;21.50;99.90;;;;;;5051063;28;20049;-72
2022/07/04 07:56:44;;;;;;;8.50;2.55;;;21.60;99.90;;;;;;5048400;28;20043;-72
2022/07/04 07:59:10;;;;;;;8.55;2.78;;;21.40;99.90;;;;;;5049223;28;20044;-72
2022/07/04 08:01:36;;;;;;;6.45;2.25;;;21.20;99.90;;;;;;5050801;28;20489;-72
2022/07/04 08:06:45;;;;;;;5.93;1.75;;;21.30;99.90;;;;;;5048317;28;20044;-72
2022/07/04 08:09:14;;;;;;;6.50;2.42;;;21.30;99.90;;;;;;5049343;28;20408;-72
2022/07/04 08:11:41;;;;;;;8.55;2.30;;;21.10;99.90;;;;;;5045980;28;20045;-72
2022/07/04 08:14:07;;;;;;;8.50;1.98;;;21.10;99.90;;;;;;5048811;28;20044;-72
2022/07/04 08:16:33;;;;;;;9.07;1.70;;;21.30;99.90;;;;;;5047846;28;20087;-72
2022/07/04 08:18:59;;;;;;;6.50;1.80;;;21.60;99.90;;;;;;5049125;28;20060;-72
2022/07/04 08:21:25;;;;;;;4.88;1.27;;;21.70;99.90;;;;;;5048232;28;20051;-72
2022/07/04 08:23:50;;;;;;;4.22;1.02;;;22.20;99.90;;;;;;5051183;28;20036;-72
2022/07/04 08:26:16;;;;;;;7.35;1.50;;;22.60;99.90;;;;;;5047216;28;20413;-72
2022/07/04 08:28:42;;;;;;;8.20;1.83;;;22.80;99.90;;;;;;5080279;28;20041;-72
2022/07/04 08:31:07;;;;;;;4.30;1.08;;;23.10;99.90;;;;;;5048492;28;20504;-72
2022/07/04 08:33:33;;;;;;;4.80;1.02;;;23.00;99.90;;;;;;5048628;28;20070;-72
2022/07/04 08:35:59;;;;;;;4.97;1.35;;;23.00;99.90;;;;;;5050327;28;20052;-72
2022/07/04 08:38:24;;;;;;;3.60;1.10;;;23.10;99.90;;;;;;5048299;28;20145;-72
2022/07/04 08:40:56;;;;;;;4.57;1.20;;;23.20;99.90;;;;;;5082109;28;20563;-72
2022/07/04 08:43:24;;;;;;;4.40;1.33;;;23.40;99.90;;;;;;5045689;28;20053;-72
2022/07/04 08:45:56;;;;;;;5.80;1.20;;;23.50;99.90;;;;;;5049907;28;20060;-72
2022/07/04 08:48:28;;;;;;;4.55;1.25;;;23.20;97.70;;;;;;5064150;28;20131;-72
2022/07/04 08:50:57;;;;;;;4.68;1.30;;;22.90;99.20;;;;;;5049572;28;20098;-73
2022/07/04 08:53:27;;;;;;;6.32;1.40;;;23.10;99.90;;;;;;5048860;28;20037;-73
2022/07/04 08:58:38;;;;;;;3.22;1.13;;;24.20;98.60;;;;;;5047796;28;20071;-73
2022/07/04 09:01:14;;;;;;;4.40;0.88;;;24.60;95.90;;;;;;5065774;28;20041;-73
2022/07/04 09:03:42;;;;;;;7.07;1.25;;;24.70;95.80;;;;;;5079685;28;20049;-73
2022/07/04 09:06:09;;;;;;;3.97;0.93;;;24.50;93.50;;;;;;5049602;28;20400;-73
2022/07/04 09:08:35;;;;;;;3.80;1.15;;;24.10;92.30;;;;;;5048652;28;20045;-73
2022/07/04 09:11:02;;;;;;;4.53;1.08;;;23.60;92.60;;;;;;5049036;28;20120;-73
2022/07/04 09:13:29;;;;;;;4.05;1.15;;;23.10;93.30;;;;;;5062494;28;20049;-73
2022/07/04 09:15:55;;;;;;;4.97;1.00;;;22.50;93.20;;;;;;5081400;28;20384;-73
2022/07/04 09:18:23;;;;;;;4.43;1.00;;;22.10;95.10;;;;;;5046605;28;20041;-73
2022/07/04 09:20:50;;;;;;;3.45;1.13;;;21.80;96.50;;;;;;5046853;28;20079;-73
2022/07/04 09:23:22;;;;;;;3.90;0.80;;;21.50;97.10;;;;;;5047827;28;20044;-73
2022/07/04 09:26:15;;;;;;;3.90;1.35;;;21.30;97.80;;;;;;5048983;28;20052;-73
2022/07/04 09:28:44;;;;;;;7.15;1.48;;;21.10;99.30;;;;;;5079901;28;20045;-73
2022/07/04 09:31:18;;;;;;;4.43;1.10;;;21.00;99.90;;;;;;5065260;28;20127;-73
2022/07/04 09:33:45;;;;;;;4.97;0.98;;;21.00;99.90;;;;;;5043870;28;20514;-73
2022/07/04 09:36:16;;;;;;;3.70;0.90;;;21.10;99.90;;;;;;5032356;28;20114;-73
2022/07/04 09:38:42;;;;;;;3.53;1.33;;;21.30;99.90;;;;;;5048225;28;20396;-73
2022/07/04 09:41:29;;;;;;;2.78;0.80;;;21.60;99.90;;;;;;5065853;28;20141;-73
2022/07/04 09:44:02;;;;;;;4.00;0.80;;;22.20;99.90;;;;;;5050839;28;20032;-73
2022/07/04 09:46:28;;;;;;;8.77;1.37;;;22.80;99.90;;;;;;5086356;28;20051;-73
2022/07/04 09:48:54;;;;;;;5.18;1.00;;;23.00;98.10;;;;;;5046132;28;20087;-73
2022/07/04 09:51:55;;;;;;;3.10;1.00;;;23.00;96.30;;;;;;5054576;28;20053;-73
2022/07/04 09:54:29;;;;;;;3.42;0.75;;;22.80;95.50;;;;;;4967516;28;20095;-73
2022/07/04 09:56:57;;;;;;;2.63;0.88;;;22.50;95.40;;;;;;5033345;28;20055;-73
2022/07/04 09:59:25;;;;;;;4.55;0.63;;;22.20;95.50;;;;;;5035032;28;20048;-73
2022/07/04 10:01:51;;;;;;;3.88;0.93;;;22.00;95.60;;;;;;5049694;28;20045;-73
2022/07/04 10:04:17;;;;;;;2.38;0.85;;;22.00;96.20;;;;;;5083703;28;20435;-73
2022/07/04 10:06:44;;;;;;;1.85;0.60;;;22.40;97.70;;;;;;5049580;28;20041;-73
2022/07/04 10:09:15;;;;;;;2.83;0.55;;;22.90;95.20;;;;;;5084656;28;20477;-74
2022/07/04 10:11:45;;;;;;;3.40;0.77;;;23.30;92.70;;;;;;5083088;28;20045;-74
2022/07/04 10:14:13;;;;;;;3.28;0.82;;;23.10;90.80;;;;;;5050184;28;20040;-74
2022/07/04 10:16:40;;;;;;;3.75;0.63;;;22.90;90.80;;;;;;5087723;28;20041;-73
2022/07/04 10:19:07;;;;;;;3.10;0.63;;;22.50;89.90;;;;;;5064448;28;20048;-73
2022/07/04 10:21:33;;;;;;;3.13;0.63;;;22.10;90.70;;;;;;5052393;28;20068;-73
2022/07/04 10:24:00;;;;;;;2.42;0.52;;;21.70;90.90;;;;;;5051321;28;20041;-73
2022/07/04 10:26:30;;;;;;;3.63;0.60;;;21.40;91.40;;;;;;5085273;28;20049;-73
2022/07/04 10:28:56;;;;;;;2.40;0.80;;;21.20;92.50;;;;;;5049999;28;20112;-73
2022/07/04 10:31:27;;;;;;;2.53;0.70;;;21.10;93.80;;;;;;5049688;28;20057;-73
2022/07/04 10:33:54;;;;;;;4.82;0.80;;;21.10;94.30;;;;;;5049678;28;20492;-74
2022/07/04 10:36:22;;;;;;;3.08;0.68;;;21.10;94.30;;;;;;5051766;28;20819;-73
2022/07/04 10:39:01;;;;;;;3.90;0.70;;;21.20;95.00;;;;;;5083284;28;20144;-74
2022/07/04 10:41:29;;;;;;;3.67;0.80;;;21.50;95.60;;;;;;5078870;28;20056;-74
2022/07/04 10:44:13;;;;;;;2.90;0.60;;;22.10;96.70;;;;;;5050988;28;20095;-74
2022/07/04 10:46:47;;;;;;;1.80;0.60;;;22.80;95.10;;;;;;5081236;28;20475;-74
2022/07/04 10:49:19;;;;;;;2.65;0.80;;;23.40;93.70;;;;;;5033336;28;20055;-75
2022/07/04 10:51:48;;;;;;;3.33;1.00;;;23.90;93.00;;;;;;5050197;28;20114;-75
2022/07/04 10:54:32;;;;;;;1.80;0.90;;;24.40;92.50;;;;;;5048813;28;20041;-76
2022/07/04 10:57:23;;;;;;;4.88;1.35;;;24.90;85.10;;;;;;5050806;28;20056;-76
2022/07/04 10:59:52;;;;;;;4.03;0.88;;;24.80;81.90;;;;;;5082755;28;20124;-76
2022/07/04 11:02:17;;;;;;;4.57;1.40;;;24.10;81.90;;;;;;5048584;28;20069;-76
2022/07/04 11:05:01;;;;;;;2.75;0.90;;;23.60;85.40;;;;;;5049069;28;20081;-76
2022/07/04 11:07:30;;;;;;;;;;;23.80;88.80;;;;;;5033996;28;20501;-76
2022/07/04 11:12:55;;;;;;;2.20;0.98;;;24.50;83.10;;;;;;5049371;28;20052;-76
2022/07/04 11:15:33;;;;;;;2.47;0.70;;;24.80;86.60;;;;;;5065315;28;20121;-76
2022/07/04 11:18:08;;;;;;;2.05;0.50;;;25.20;84.70;;;;;;5083171;28;20073;-76
2022/07/04 11:20:38;;;;;;;2.10;0.70;;;25.60;79.60;;;;;;5037130;28;20119;-76
2022/07/04 11:23:12;;;;;;;3.47;0.57;;;25.90;78.40;;;;;;5048348;28;20049;-76
2022/07/04 11:25:40;;;;;;;2.78;0.60;;;26.20;71.40;;;;;;5049028;28;20056;-76
2022/07/04 11:28:26;;;;;;;1.40;0.40;;;26.00;70.70;;;;;;5049082;28;20116;-76
2022/07/04 11:30:54;;;;;;;1.85;0.40;;;25.50;70.60;;;;;;5044958;28;20557;-76
2022/07/04 11:33:22;;;;;;;4.82;0.90;;;25.60;72.90;;;;;;5052043;28;20118;-75
2022/07/04 11:36:20;;;;;;;1.55;0.50;;;25.90;70.50;;;;;;5049392;28;20083;-76
2022/07/04 11:38:57;;;;;;;1.65;0.35;;;25.90;67.80;;;;;;5047065;28;20056;-76
2022/07/04 11:47:39;;;;;;;1.98;0.40;;;24.90;69.60;;;;;;5047876;28;20068;-75
2022/07/04 11:50:09;;;;;;;2.47;0.40;;;24.70;65.70;;;;;;5033103;28;20049;-75
2022/07/04 11:52:37;;;;;;;4.60;0.70;;;24.40;67.70;;;;;;5064096;28;20075;-75
2022/07/04 11:55:05;;;;;;;1.60;0.32;;;24.40;66.80;;;;;;5047686;28;20465;-75
2022/07/04 11:57:49;;;;;;;4.72;0.60;;;24.70;68.10;;;;;;5047706;28;20051;-75
2022/07/04 12:00:26;;;;;;;2.13;0.50;;;25.20;62.80;;;;;;5066446;28;20079;-75
2022/07/04 12:02:51;;;;;;;2.10;0.38;;;25.20;63.50;;;;;;5049242;28;20052;-76
2022/07/04 12:05:18;;;;;;;2.60;0.63;;;25.20;64.70;;;;;;5049832;28;20382;-75
2022/07/04 12:07:46;;;;;;;2.33;0.40;;;25.50;64.20;;;;;;5048546;28;20041;-76
2022/07/04 12:10:18;;;;;;;1.83;0.40;;;25.90;63.60;;;;;;5065773;28;20082;-77
2022/07/04 12:12:56;;;;;;;3.63;0.57;;;26.40;62.80;;;;;;5044813;28;20037;-77
2022/07/04 12:15:23;;;;;;;1.85;0.40;;;26.50;61.20;;;;;;5055279;28;20029;-77
2022/07/04 12:17:54;;;;;;;1.60;0.50;;;26.20;61.70;;;;;;5080865;28;20472;-77
2022/07/04 12:20:24;;;;;;;2.83;0.57;;;26.30;61.70;;;;;;5036108;28;20403;-78
2022/07/04 12:22:51;;;;;;;2.28;0.30;;;26.40;61.30;;;;;;5031832;28;20382;-78
2022/07/04 12:25:24;;;;;;;2.45;0.35;;;26.60;62.40;;;;;;5049590;28;20044;-75
2022/07/04 12:28:04;;;;;;;2.63;0.60;;;27.00;60.00;;;;;;5076570;28;20056;-76
2022/07/04 12:30:33;;;;;;;2.63;0.40;;;26.90;56.00;;;;;;5075778;28;20052;-75
2022/07/04 12:33:03;;;;;;;2.92;0.40;;;26.70;57.40;;;;;;5048320;28;20503;-75
2022/07/04 12:35:38;;;;;;;1.95;0.30;;;26.40;56.30;;;;;;5048250;28;20116;-76
2022/07/04 12:38:07;;;;;;;1.15;0.10;;;26.00;56.40;;;;;;5046495;28;20037;-75
2022/07/04 12:40:34;;;;;;;1.27;0.20;;;25.80;56.60;;;;;;5047316;28;20499;-75
2022/07/04 12:43:00;;;;;;;0.90;0.20;;;25.60;55.90;;;;;;5043257;28;20076;-67
2022/07/04 12:45:26;;;;;;;1.33;0.20;;;25.60;56.20;;;;;;5048067;28;20056;-67
2022/07/04 12:47:54;;;;;;;2.15;0.30;;;25.40;55.20;;;;;;5048528;28;20222;-67
2022/07/04 12:50:27;;;;;;;0.57;0.20;;;25.40;55.90;;;;;;5049516;28;20049;-67
2022/07/04 12:52:53;;;;;;;1.38;0.13;;;25.50;55.90;;;;;;5046435;28;20201;-67
2022/07/04 12:55:18;;;;;;;0.85;0.40;;;25.70;57.80;;;;;;5049401;28;20091;-67
2022/07/04 12:57:44;;;;;;;1.30;0.25;;;25.90;57.40;;;;;;5046001;28;20158;-67
2022/07/04 13:00:12;;;;;;;2.42;0.20;;;26.20;54.60;;;;;;5030824;28;20049;-66
2022/07/04 13:02:38;;;;;;;1.40;0.30;;;26.20;54.20;;;;;;5048579;28;20049;-67
2022/07/04 13:05:04;;;;;;;2.25;0.30;;;26.30;54.70;;;;;;5051253;28;20044;-67
2022/07/04 13:07:29;;;;;;;1.70;0.20;;;26.30;54.70;;;;;;5052576;28;20044;-68
2022/07/04 13:09:55;;;;;;;2.65;0.30;;;26.50;55.20;;;;;;5048387;28;20037;-67